Terminal Aerodrome Forecast
Issued by NWS Sterling, VA

Current Version | Previous Version | Text Only | Print | Product List | Glossary Off
Versions: 1 2 3 4 5 6 7 8 9 10 11 12 13 14 15 16 17 18 19 20 21 22

782
FTUS41 KLWX 110520
TAFIAD
TAF
KIAD 110520Z 1106/1212 29012G20KT P6SM SCT100
     FM112000 29016G26KT P6SM SCT050
     FM120100 31009KT P6SM FEW250=

USA.gov is the U.S. government's official web portal to all federal, state and local government web resources and services.